Time;durP1;ratioP1;P1;durP2;ratioP2;P2;SDS_P1;SDS_P2;PMS_P1;PMS_P2;Temp;Humidity;BMP_temperature;BMP_pressure;BME280_temperature;BME280_humidity;BME280_pressure;Samples;Min_cycle;Max_cycle;Signal;HPM_P1;HPM_P2
2021/11/30 00:01:53;;;;;;;23.73;10.75;;;5.60;99.90;;;;;;5044423;28;20632;-71
2021/11/30 00:04:19;;;;;;;31.05;11.13;;;5.60;99.90;;;;;;5031537;28;20025;-71
2021/11/30 00:06:46;;;;;;;17.88;10.02;;;5.60;99.90;;;;;;5048610;28;20137;-71
2021/11/30 00:12:26;;;;;;;18.45;9.10;;;5.50;99.90;;;;;;5046485;28;20029;-71
2021/11/30 00:14:54;;;;;;;17.67;9.85;;;5.50;99.90;;;;;;5046573;28;20045;-72
2021/11/30 00:17:21;;;;;;;20.77;9.68;;;5.50;99.90;;;;;;5045700;28;20025;-72
2021/11/30 00:19:49;;;;;;;22.83;10.43;;;5.50;99.90;;;;;;5037244;28;20037;-72
2021/11/30 00:22:18;;;;;;;16.70;9.02;;;5.50;99.90;;;;;;5045388;28;20025;-71
2021/11/30 00:24:44;;;;;;;15.32;8.82;;;5.50;99.90;;;;;;5043615;28;20374;-71
2021/11/30 00:27:10;;;;;;;17.10;9.00;;;5.50;99.90;;;;;;5037680;28;20030;-72
2021/11/30 00:29:36;;;;;;;19.83;10.35;;;5.50;99.90;;;;;;5044262;28;20036;-72
2021/11/30 00:32:03;;;;;;;14.95;8.27;;;5.50;99.90;;;;;;5039477;28;20108;-72
2021/11/30 00:34:29;;;;;;;16.63;8.13;;;5.40;99.90;;;;;;5043145;28;20088;-72
2021/11/30 00:36:55;;;;;;;18.45;8.43;;;5.40;99.90;;;;;;5040458;28;20437;-71
2021/11/30 00:39:21;;;;;;;16.05;7.47;;;5.40;99.90;;;;;;5036994;28;20382;-71
2021/11/30 00:41:50;;;;;;;16.65;8.32;;;5.50;99.90;;;;;;5042267;28;20488;-72
2021/11/30 00:44:17;;;;;;;12.93;6.68;;;5.50;99.90;;;;;;5037703;28;20033;-72
2021/11/30 00:46:48;;;;;;;17.92;6.80;;;5.40;99.90;;;;;;5044530;28;20017;-71
2021/11/30 00:49:14;;;;;;;17.00;6.53;;;5.40;99.90;;;;;;5041907;28;20017;-71
2021/11/30 00:51:42;;;;;;;12.32;7.05;;;5.40;99.90;;;;;;5037902;28;20048;-72
2021/11/30 00:54:10;;;;;;;11.45;6.63;;;5.50;99.90;;;;;;5043491;28;20033;-71
2021/11/30 00:56:40;;;;;;;11.27;6.32;;;5.50;99.90;;;;;;5041917;28;20049;-72
2021/11/30 00:59:06;;;;;;;17.40;6.53;;;5.50;99.90;;;;;;5037637;28;20031;-72
2021/11/30 01:01:32;;;;;;;16.42;6.00;;;5.50;99.90;;;;;;5039126;28;20025;-72
2021/11/30 01:03:59;;;;;;;13.43;5.65;;;5.50;99.90;;;;;;5044313;28;20025;-72
2021/11/30 01:06:25;;;;;;;11.80;5.30;;;5.40;99.90;;;;;;5044558;28;20029;-72
2021/11/30 01:08:51;;;;;;;15.05;6.38;;;5.50;99.90;;;;;;5044816;28;20044;-72
2021/11/30 01:11:17;;;;;;;14.95;6.15;;;5.50;99.90;;;;;;5045022;28;20040;-71
2021/11/30 01:13:42;;;;;;;15.25;6.35;;;5.50;99.90;;;;;;5040841;28;20409;-72
2021/11/30 01:16:08;;;;;;;19.15;6.88;;;5.50;99.90;;;;;;5047548;28;20075;-72
2021/11/30 01:18:34;;;;;;;9.35;5.68;;;5.40;99.90;;;;;;5041748;28;20083;-72
2021/11/30 01:21:00;;;;;;;14.18;6.82;;;5.40;99.90;;;;;;5042938;28;20506;-72
2021/11/30 01:23:29;;;;;;;11.77;5.20;;;5.40;99.90;;;;;;5042466;28;20116;-72
2021/11/30 01:25:55;;;;;;;9.80;5.15;;;5.40;99.90;;;;;;5044579;28;20017;-72
2021/11/30 01:28:21;;;;;;;15.35;5.25;;;5.40;99.90;;;;;;5041102;28;20021;-72
2021/11/30 01:30:47;;;;;;;16.95;5.75;;;5.30;99.90;;;;;;5044916;28;20033;-72
2021/11/30 01:33:12;;;;;;;8.40;4.65;;;5.30;99.90;;;;;;5045409;28;20033;-72
2021/11/30 01:35:43;;;;;;;9.85;4.70;;;5.30;99.90;;;;;;5043847;28;20374;-72
2021/11/30 01:38:08;;;;;;;10.60;4.78;;;5.30;99.90;;;;;;5045678;28;20082;-72
2021/11/30 01:40:34;;;;;;;16.08;5.28;;;5.40;99.90;;;;;;5041304;28;20420;-72
2021/11/30 01:43:03;;;;;;;12.93;8.23;;;5.30;99.90;;;;;;5047304;28;20025;-72
2021/11/30 01:45:45;;;;;;;10.32;4.72;;;5.40;99.90;;;;;;5041998;28;20022;-72
2021/11/30 01:50:47;;;;;;;9.77;5.13;;;5.40;99.90;;;;;;5044213;28;20041;-72
2021/11/30 01:53:13;;;;;;;9.63;4.57;;;5.30;99.90;;;;;;5046318;28;20036;-72
2021/11/30 01:55:39;;;;;;;16.50;5.93;;;5.40;99.90;;;;;;5048315;28;20028;-71
2021/11/30 01:58:05;;;;;;;13.15;5.60;;;5.40;99.90;;;;;;5046018;28;20040;-72
2021/11/30 02:00:35;;;;;;;13.43;5.90;;;5.30;99.90;;;;;;5045609;28;20021;-72
2021/11/30 02:03:05;;;;;;;14.10;5.22;;;5.40;99.90;;;;;;5045406;28;20035;-72
2021/11/30 02:05:32;;;;;;;17.33;5.40;;;5.40;99.90;;;;;;5036554;28;20469;-72
2021/11/30 02:07:57;;;;;;;11.52;5.75;;;5.40;99.90;;;;;;5046653;28;20025;-72
2021/11/30 02:10:24;;;;;;;12.93;6.40;;;5.40;99.90;;;;;;5043494;28;20033;-71
2021/11/30 02:12:50;;;;;;;14.88;5.97;;;5.40;99.90;;;;;;5042431;28;20504;-72
2021/11/30 02:15:16;;;;;;;10.85;5.47;;;5.40;99.90;;;;;;5045842;28;20154;-71
2021/11/30 02:17:42;;;;;;;18.77;6.65;;;5.50;99.90;;;;;;5047726;28;20108;-72
2021/11/30 02:20:09;;;;;;;11.25;5.20;;;5.50;99.90;;;;;;5041355;28;20074;-72
2021/11/30 02:22:35;;;;;;;11.85;5.72;;;5.50;99.90;;;;;;5047192;28;20056;-72
2021/11/30 02:25:03;;;;;;;16.73;6.18;;;5.40;99.90;;;;;;5042114;28;20346;-72
2021/11/30 02:27:28;;;;;;;19.45;6.80;;;5.40;99.90;;;;;;5045083;28;20104;-72
2021/11/30 02:29:54;;;;;;;14.50;7.07;;;5.50;99.90;;;;;;5048306;28;20155;-72
2021/11/30 02:32:20;;;;;;;15.77;6.57;;;5.40;99.90;;;;;;5042168;28;20362;-72
2021/11/30 02:34:46;;;;;;;21.00;8.20;;;5.40;99.90;;;;;;5044395;28;20037;-72
2021/11/30 02:37:14;;;;;;;17.73;7.78;;;5.40;99.90;;;;;;5042944;28;21204;-72
2021/11/30 02:39:40;;;;;;;13.13;7.68;;;5.50;99.90;;;;;;5050050;28;20013;-72
2021/11/30 02:42:19;;;;;;;16.08;8.02;;;5.40;99.90;;;;;;5047159;28;20025;-72
2021/11/30 02:44:45;;;;;;;13.48;7.78;;;5.40;99.90;;;;;;5043259;28;20401;-72
2021/11/30 02:47:13;;;;;;;14.25;7.72;;;5.40;99.90;;;;;;5048031;28;20021;-72
2021/11/30 02:49:41;;;;;;;16.13;8.38;;;5.40;99.90;;;;;;5038680;28;20051;-72
2021/11/30 02:52:17;;;;;;;19.05;9.63;;;5.40;99.90;;;;;;5049293;28;20013;-72
2021/11/30 02:54:45;;;;;;;19.25;9.45;;;5.50;99.90;;;;;;5041414;28;20524;-72
2021/11/30 02:57:13;;;;;;;15.68;9.25;;;5.40;99.90;;;;;;5043063;28;20026;-72
2021/11/30 02:59:42;;;;;;;15.40;8.50;;;5.40;99.90;;;;;;5040278;28;20025;-72
2021/11/30 03:02:13;;;;;;;17.50;8.70;;;5.50;99.90;;;;;;5044676;28;20029;-72
2021/11/30 03:04:41;;;;;;;18.75;9.30;;;5.50;99.90;;;;;;5047671;28;20711;-72
2021/11/30 03:07:13;;;;;;;18.13;10.27;;;5.50;99.90;;;;;;5048602;28;20101;-71
2021/11/30 03:09:40;;;;;;;18.42;9.73;;;5.50;99.90;;;;;;5050549;28;20025;-72
2021/11/30 03:12:06;;;;;;;15.65;9.80;;;5.50;99.90;;;;;;5045740;28;20026;-72
2021/11/30 03:14:32;;;;;;;16.17;10.20;;;5.60;99.90;;;;;;5045403;28;20537;-71
2021/11/30 03:16:58;;;;;;;16.27;9.40;;;5.70;99.90;;;;;;5027235;28;20206;-72
2021/11/30 03:19:27;;;;;;;21.00;11.38;;;5.70;99.90;;;;;;5046119;28;20078;-71
2021/11/30 03:21:54;;;;;;;16.60;9.55;;;5.70;99.90;;;;;;5046323;28;20029;-71
2021/11/30 03:24:20;;;;;;;19.70;10.65;;;5.80;99.90;;;;;;5046955;28;20143;-71
2021/11/30 03:26:46;;;;;;;22.80;13.65;;;5.70;99.90;;;;;;5050061;28;20537;-71
2021/11/30 03:29:12;;;;;;;19.25;11.20;;;5.80;99.90;;;;;;5046528;28;20029;-71
2021/11/30 03:34:25;;;;;;;17.85;11.48;;;5.90;99.90;;;;;;5045163;28;20044;-72
2021/11/30 03:36:53;;;;;;;23.55;11.13;;;5.90;99.90;;;;;;5047092;28;20038;-72
2021/11/30 03:39:23;;;;;;;19.80;11.15;;;5.90;99.90;;;;;;5045571;28;20052;-72
2021/11/30 03:41:52;;;;;;;17.95;11.20;;;6.00;99.90;;;;;;5050287;28;20021;-72
2021/11/30 03:44:18;;;;;;;18.45;11.10;;;6.00;99.90;;;;;;5045681;28;20120;-71
2021/11/30 03:46:44;;;;;;;17.50;11.07;;;6.00;99.90;;;;;;5041140;28;20033;-72
2021/11/30 03:49:14;;;;;;;22.05;11.15;;;6.00;99.90;;;;;;5042762;28;20022;-72
2021/11/30 03:51:40;;;;;;;18.65;12.50;;;6.10;99.90;;;;;;5038466;28;20029;-72
2021/11/30 03:54:07;;;;;;;21.70;11.77;;;6.20;99.90;;;;;;5039607;28;20140;-72
2021/11/30 03:56:33;;;;;;;22.17;12.52;;;6.10;99.90;;;;;;5040469;28;20036;-72
2021/11/30 03:58:58;;;;;;;20.77;13.57;;;6.20;99.90;;;;;;5043806;28;20041;-71
2021/11/30 04:01:24;;;;;;;22.25;13.65;;;6.30;99.90;;;;;;5042573;28;20017;-72
2021/11/30 04:03:50;;;;;;;19.80;12.57;;;6.30;99.90;;;;;;5042182;28;20112;-72
2021/11/30 04:06:15;;;;;;;19.95;12.80;;;6.30;99.90;;;;;;5042028;28;20017;-72
2021/11/30 04:08:41;;;;;;;21.38;13.13;;;6.20;99.90;;;;;;5042406;28;20032;-72
2021/11/30 04:11:10;;;;;;;19.27;11.88;;;6.20;99.90;;;;;;5039331;28;20059;-72
2021/11/30 04:13:36;;;;;;;18.42;11.60;;;6.30;99.90;;;;;;5039936;28;20112;-72
2021/11/30 04:16:02;;;;;;;20.70;12.35;;;6.30;99.90;;;;;;5045422;28;20374;-72
2021/11/30 04:18:30;;;;;;;21.23;13.90;;;6.20;99.90;;;;;;5041917;28;20106;-72
2021/11/30 04:20:56;;;;;;;17.20;12.57;;;6.30;99.90;;;;;;5042574;28;20102;-72
2021/11/30 04:23:24;;;;;;;22.13;12.50;;;6.40;99.90;;;;;;5043264;28;20060;-71
2021/11/30 04:25:50;;;;;;;16.98;11.18;;;6.40;99.90;;;;;;5046720;28;20033;-71
2021/11/30 04:28:15;;;;;;;16.60;11.10;;;6.30;99.90;;;;;;5043052;28;20389;-72
2021/11/30 04:30:41;;;;;;;17.60;12.32;;;6.40;99.90;;;;;;5045866;28;20034;-71
2021/11/30 04:33:07;;;;;;;19.80;12.90;;;6.40;99.90;;;;;;5045389;28;20042;-71
2021/11/30 04:35:33;;;;;;;23.08;13.43;;;6.40;99.90;;;;;;5040804;28;20412;-71
2021/11/30 04:37:58;;;;;;;15.45;11.35;;;6.50;99.90;;;;;;5047054;28;20056;-72
2021/11/30 04:40:24;;;;;;;19.58;12.40;;;6.50;99.90;;;;;;5043506;28;20025;-72
2021/11/30 04:42:50;;;;;;;16.42;12.55;;;6.60;99.90;;;;;;5042459;28;20026;-71
2021/11/30 04:45:27;;;;;;;17.65;12.82;;;6.50;99.90;;;;;;5045201;28;20029;-72
2021/11/30 04:47:55;;;;;;;16.90;12.40;;;6.50;99.90;;;;;;5046440;28;20393;-72
2021/11/30 04:50:24;;;;;;;18.50;13.13;;;6.50;99.90;;;;;;5044517;28;20024;-72
2021/11/30 04:52:51;;;;;;;16.30;12.00;;;6.60;99.90;;;;;;5042866;28;20028;-72
2021/11/30 04:55:26;;;;;;;23.15;12.85;;;6.60;99.90;;;;;;5044642;28;20125;-72
2021/11/30 04:58:03;;;;;;;14.10;10.15;;;6.60;99.90;;;;;;5043863;28;20506;-72
2021/11/30 05:00:30;;;;;;;13.65;11.40;;;6.50;99.90;;;;;;5044101;28;20075;-72
2021/11/30 05:02:56;;;;;;;17.40;12.07;;;6.60;99.90;;;;;;5041625;28;20041;-72
2021/11/30 05:05:22;;;;;;;14.60;11.30;;;6.70;99.90;;;;;;5042812;28;20103;-72
2021/11/30 05:07:48;;;;;;;16.92;11.40;;;6.70;99.90;;;;;;5048267;28;20108;-72
2021/11/30 05:10:17;;;;;;;17.70;11.32;;;6.70;99.90;;;;;;5047130;28;20029;-72
2021/11/30 05:12:44;;;;;;;18.50;12.10;;;6.70;99.90;;;;;;5046202;28;20041;-72
2021/11/30 05:15:10;;;;;;;14.77;11.23;;;6.70;99.90;;;;;;5044205;28;20031;-72
2021/11/30 05:17:36;;;;;;;17.85;12.30;;;6.70;99.90;;;;;;5038883;28;20138;-72
2021/11/30 05:20:03;;;;;;;15.40;10.80;;;6.80;99.90;;;;;;5046687;28;20032;-72
2021/11/30 05:22:29;;;;;;;16.55;11.27;;;6.80;99.90;;;;;;5039920;28;20032;-72
2021/11/30 05:24:54;;;;;;;19.92;13.20;;;6.80;99.90;;;;;;5044360;28;20025;-72
2021/11/30 05:27:21;;;;;;;19.27;13.40;;;6.90;99.90;;;;;;5037684;28;20109;-72
2021/11/30 05:29:47;;;;;;;17.58;13.20;;;6.80;99.90;;;;;;5043273;28;20083;-72
2021/11/30 05:32:12;;;;;;;18.77;13.63;;;6.80;99.90;;;;;;5047038;28;20078;-72
2021/11/30 05:34:38;;;;;;;24.27;14.45;;;6.80;99.90;;;;;;5040958;28;20032;-72
2021/11/30 05:37:04;;;;;;;21.20;14.10;;;6.90;99.90;;;;;;5047266;28;20094;-72
2021/11/30 05:39:30;;;;;;;20.92;13.68;;;6.90;99.90;;;;;;5049139;28;20060;-72
2021/11/30 05:41:56;;;;;;;21.15;14.10;;;6.90;99.90;;;;;;5048433;28;20051;-72
2021/11/30 05:44:22;;;;;;;22.80;14.73;;;6.90;99.90;;;;;;5048062;28;20434;-72
2021/11/30 05:46:49;;;;;;;21.65;15.23;;;6.90;99.90;;;;;;5046909;28;20040;-72
2021/11/30 05:49:15;;;;;;;21.13;15.75;;;7.00;99.90;;;;;;5042161;28;20051;-72
2021/11/30 05:51:41;;;;;;;23.05;15.57;;;7.00;99.90;;;;;;5046615;28;20025;-72
2021/11/30 05:54:07;;;;;;;25.27;16.50;;;7.10;99.90;;;;;;5048966;28;20393;-72
2021/11/30 05:56:32;;;;;;;22.80;14.55;;;7.10;99.90;;;;;;5047100;28;20029;-72
2021/11/30 05:58:58;;;;;;;25.40;16.27;;;7.10;99.90;;;;;;5042929;28;20018;-72
2021/11/30 06:01:30;;;;;;;24.92;16.27;;;7.10;99.90;;;;;;5048330;28;20025;-72
2021/11/30 06:04:00;;;;;;;26.13;17.02;;;7.10;99.90;;;;;;5042180;28;20610;-72
2021/11/30 06:06:32;;;;;;;26.02;17.67;;;7.20;99.90;;;;;;5041077;28;20410;-72
2021/11/30 06:08:59;;;;;;;24.85;16.75;;;7.20;99.90;;;;;;5045911;28;20026;-72
2021/11/30 06:11:25;;;;;;;25.90;17.92;;;7.20;99.90;;;;;;5043822;28;20029;-72
2021/11/30 06:13:51;;;;;;;23.83;16.20;;;7.20;99.90;;;;;;5039895;28;20052;-72
2021/11/30 06:16:18;;;;;;;27.52;18.35;;;7.20;99.90;;;;;;5047636;28;20024;-72
2021/11/30 06:18:44;;;;;;;26.55;17.70;;;7.30;99.90;;;;;;5040083;28;20033;-72
2021/11/30 06:21:11;;;;;;;23.92;16.35;;;7.30;99.90;;;;;;5045973;28;20078;-72
2021/11/30 06:23:39;;;;;;;25.20;16.70;;;7.40;99.90;;;;;;5046006;28;20082;-72
2021/11/30 06:26:06;;;;;;;29.38;18.60;;;7.40;99.90;;;;;;5042943;28;20021;-72
2021/11/30 06:28:32;;;;;;;28.83;19.65;;;7.40;99.90;;;;;;5045717;28;20032;-72
2021/11/30 06:30:57;;;;;;;28.90;18.30;;;7.40;99.90;;;;;;5049284;28;20037;-72
2021/11/30 06:33:23;;;;;;;31.30;18.75;;;7.40;99.90;;;;;;5044931;28;20558;-72
2021/11/30 06:35:49;;;;;;;29.48;18.73;;;7.50;99.90;;;;;;5047685;28;20037;-72
2021/11/30 06:38:15;;;;;;;30.98;19.70;;;7.50;99.90;;;;;;5043556;28;20029;-72
2021/11/30 06:40:40;;;;;;;31.80;18.58;;;7.40;99.90;;;;;;5047422;28;20064;-72
2021/11/30 06:43:06;;;;;;;26.75;16.98;;;7.50;99.90;;;;;;5046857;28;20024;-72
2021/11/30 06:45:32;;;;;;;29.83;18.52;;;7.50;99.90;;;;;;5048178;28;20025;-72
2021/11/30 06:47:57;;;;;;;32.45;18.40;;;7.60;99.90;;;;;;5048247;28;20033;-72
2021/11/30 06:50:23;;;;;;;29.25;17.52;;;7.60;99.90;;;;;;5052445;28;20025;-72
2021/11/30 06:52:50;;;;;;;28.77;17.85;;;7.50;99.90;;;;;;5043372;28;20041;-72
2021/11/30 06:55:17;;;;;;;29.77;16.45;;;7.60;99.90;;;;;;5041617;28;20056;-72
2021/11/30 06:57:42;;;;;;;29.00;16.77;;;7.60;99.90;;;;;;5045669;28;20159;-72
2021/11/30 07:00:10;;;;;;;27.52;16.67;;;7.60;99.90;;;;;;5038628;28;20120;-72
2021/11/30 07:02:36;;;;;;;27.42;16.17;;;7.60;99.90;;;;;;5040975;28;20085;-72
2021/11/30 07:05:41;;;;;;;24.75;16.08;;;7.70;99.90;;;;;;5046362;28;20021;-72
2021/11/30 07:10:43;;;;;;;24.52;15.80;;;7.70;99.90;;;;;;5040019;28;20041;-72
2021/11/30 07:13:22;;;;;;;23.23;15.07;;;7.60;99.90;;;;;;5039870;28;20108;-72
2021/11/30 07:15:51;;;;;;;23.15;14.43;;;7.70;99.90;;;;;;5042605;28;20059;-72
2021/11/30 07:18:17;;;;;;;24.02;14.38;;;7.80;99.90;;;;;;5042043;28;20071;-72
2021/11/30 07:20:44;;;;;;;20.42;14.30;;;7.70;99.90;;;;;;5040123;28;20057;-72
2021/11/30 07:23:10;;;;;;;23.95;15.35;;;7.70;99.90;;;;;;5043235;28;20043;-72
2021/11/30 07:25:36;;;;;;;21.48;14.05;;;7.80;99.90;;;;;;5047869;28;20075;-72
2021/11/30 07:28:01;;;;;;;23.33;14.63;;;7.80;99.90;;;;;;5046671;28;20432;-72
2021/11/30 07:30:27;;;;;;;21.58;14.05;;;7.90;99.90;;;;;;5044657;28;20029;-73
2021/11/30 07:32:53;;;;;;;21.05;14.15;;;7.80;99.90;;;;;;5041813;28;20460;-72
2021/11/30 07:35:20;;;;;;;23.55;14.90;;;7.90;99.90;;;;;;5057695;28;20041;-72
2021/11/30 07:37:47;;;;;;;22.63;14.38;;;8.00;99.90;;;;;;5039126;28;20025;-72
2021/11/30 07:40:13;;;;;;;22.40;14.93;;;7.90;99.90;;;;;;5047966;28;20090;-72
2021/11/30 07:42:39;;;;;;;23.73;16.25;;;7.90;99.90;;;;;;5040230;28;20079;-72
2021/11/30 07:45:05;;;;;;;22.77;15.13;;;7.90;99.90;;;;;;5042186;28;20033;-72
2021/11/30 07:47:31;;;;;;;27.20;15.90;;;8.00;99.90;;;;;;5039227;28;20051;-72
2021/11/30 07:49:57;;;;;;;21.08;14.85;;;8.00;99.90;;;;;;5041194;28;20029;-72
2021/11/30 07:52:22;;;;;;;23.00;15.13;;;8.10;99.90;;;;;;5038836;28;20390;-72
2021/11/30 07:54:50;;;;;;;22.67;15.15;;;8.10;99.90;;;;;;5040350;28;20029;-72
2021/11/30 07:57:16;;;;;;;24.52;16.23;;;8.00;99.90;;;;;;5045719;28;20048;-72
2021/11/30 07:59:41;;;;;;;23.38;14.88;;;8.10;99.90;;;;;;5042284;28;20025;-72
2021/11/30 08:02:08;;;;;;;26.10;15.48;;;8.10;99.90;;;;;;5039512;28;20179;-72
2021/11/30 08:04:34;;;;;;;22.67;14.80;;;8.10;99.90;;;;;;5039042;28;20106;-72
2021/11/30 08:07:00;;;;;;;22.90;14.35;;;8.20;99.90;;;;;;5037739;28;20200;-72
2021/11/30 08:09:33;;;;;;;23.10;14.57;;;8.20;99.90;;;;;;5038873;28;20020;-72
2021/11/30 08:11:59;;;;;;;22.35;14.52;;;8.20;99.90;;;;;;5038210;28;20036;-72
2021/11/30 08:14:24;;;;;;;27.05;15.40;;;8.20;99.90;;;;;;5039968;28;20041;-72
2021/11/30 08:16:50;;;;;;;23.65;15.25;;;8.20;99.90;;;;;;5041580;28;20481;-72
2021/11/30 08:19:16;;;;;;;26.30;15.43;;;8.30;99.90;;;;;;5045732;28;20086;-73
2021/11/30 08:21:41;;;;;;;24.70;14.95;;;8.30;99.90;;;;;;5042971;28;20024;-72
2021/11/30 08:24:07;;;;;;;23.20;14.75;;;8.30;99.90;;;;;;5048908;28;20081;-72
2021/11/30 08:26:34;;;;;;;22.77;14.50;;;8.40;99.90;;;;;;5040063;28;20018;-72
2021/11/30 08:28:59;;;;;;;23.00;14.40;;;8.40;99.90;;;;;;5038236;28;20033;-72
2021/11/30 08:31:25;;;;;;;26.55;16.02;;;8.40;99.90;;;;;;5042886;28;20033;-72
2021/11/30 08:33:51;;;;;;;27.65;16.88;;;8.40;99.90;;;;;;5042455;28;20489;-72
2021/11/30 08:36:17;;;;;;;30.13;18.17;;;8.40;99.90;;;;;;5044876;28;20493;-73
2021/11/30 08:38:43;;;;;;;30.55;16.20;;;8.50;99.90;;;;;;5042665;28;20025;-72
2021/11/30 08:41:09;;;;;;;29.50;17.00;;;8.50;99.90;;;;;;5043279;28;20029;-73
2021/11/30 08:43:34;;;;;;;28.67;17.17;;;8.60;99.90;;;;;;5042331;28;20031;-73
2021/11/30 08:46:00;;;;;;;25.75;15.88;;;8.60;99.90;;;;;;5043924;28;20458;-72
2021/11/30 08:48:26;;;;;;;25.38;15.02;;;8.60;99.90;;;;;;5043657;28;20028;-73
2021/11/30 08:50:54;;;;;;;23.52;15.60;;;8.70;99.90;;;;;;5040911;28;20107;-73
2021/11/30 08:53:20;;;;;;;26.23;14.82;;;8.70;99.90;;;;;;5039816;28;20394;-73
2021/11/30 08:55:46;;;;;;;23.55;14.52;;;8.70;99.90;;;;;;5041880;28;20025;-72
2021/11/30 08:58:12;;;;;;;26.65;16.10;;;8.70;99.90;;;;;;5043395;28;20040;-73
2021/11/30 09:00:39;;;;;;;26.05;14.48;;;8.70;99.90;;;;;;5042708;28;20556;-72
2021/11/30 09:03:05;;;;;;;23.38;13.25;;;8.70;99.90;;;;;;5040415;28;20027;-72
2021/11/30 09:05:31;;;;;;;22.55;13.15;;;8.70;99.90;;;;;;5042148;28;20036;-73
2021/11/30 09:07:57;;;;;;;22.15;13.15;;;8.70;99.90;;;;;;5048765;28;20021;-73
2021/11/30 09:10:23;;;;;;;22.42;13.23;;;8.80;99.90;;;;;;5044870;28;20040;-73
2021/11/30 09:12:50;;;;;;;23.55;13.43;;;8.80;99.90;;;;;;5044654;28;20071;-73
2021/11/30 09:15:16;;;;;;;23.98;13.13;;;8.80;99.90;;;;;;5050544;28;20071;-73
2021/11/30 09:17:44;;;;;;;21.60;12.93;;;8.90;99.90;;;;;;5045605;28;20067;-72
2021/11/30 09:20:11;;;;;;;20.58;12.70;;;8.90;99.90;;;;;;5047747;28;20033;-73
2021/11/30 09:22:38;;;;;;;20.05;12.38;;;8.90;99.90;;;;;;5040661;28;20037;-72
2021/11/30 09:25:05;;;;;;;24.02;13.43;;;8.90;99.90;;;;;;5042847;28;20017;-72
2021/11/30 09:27:31;;;;;;;20.73;12.18;;;9.00;99.90;;;;;;5040630;28;20026;-72
2021/11/30 09:29:58;;;;;;;19.10;12.10;;;9.00;99.90;;;;;;5042910;28;20028;-72
2021/11/30 09:32:30;;;;;;;19.00;12.48;;;9.00;99.90;;;;;;5043154;28;20040;-72
2021/11/30 09:34:59;;;;;;;19.02;12.73;;;9.10;99.90;;;;;;5041140;28;20022;-72
2021/11/30 09:37:26;;;;;;;24.13;13.40;;;9.10;99.90;;;;;;5038314;28;20436;-73
2021/11/30 09:39:54;;;;;;;18.63;12.00;;;9.10;99.90;;;;;;5034685;28;20041;-72
2021/11/30 09:42:20;;;;;;;21.92;13.35;;;9.10;99.90;;;;;;5044225;28;20542;-72
2021/11/30 09:44:46;;;;;;;19.98;12.50;;;9.20;99.90;;;;;;5045740;28;20028;-72
2021/11/30 09:47:14;;;;;;;21.60;13.25;;;9.10;99.90;;;;;;5042156;28;20442;-72
2021/11/30 09:49:40;;;;;;;26.20;14.65;;;9.10;99.90;;;;;;5046176;28;20017;-72
2021/11/30 09:52:06;;;;;;;24.65;14.23;;;9.20;99.90;;;;;;5040032;28;20032;-73
2021/11/30 09:54:32;;;;;;;20.17;13.95;;;9.20;99.90;;;;;;5039717;28;20040;-72
2021/11/30 09:56:58;;;;;;;24.05;13.48;;;9.20;99.90;;;;;;5043975;28;20033;-73
2021/11/30 09:59:24;;;;;;;26.67;15.55;;;9.20;99.90;;;;;;5047226;28;20044;-72
2021/11/30 10:01:50;;;;;;;25.02;15.35;;;9.30;99.90;;;;;;5043475;28;20466;-72
2021/11/30 10:04:16;;;;;;;25.40;15.40;;;9.30;99.90;;;;;;5051464;28;20470;-72
2021/11/30 10:06:42;;;;;;;23.90;14.90;;;9.20;99.90;;;;;;5054484;28;20032;-73
2021/11/30 10:09:21;;;;;;;27.02;14.88;;;9.30;99.90;;;;;;5049810;28;20457;-73
2021/11/30 10:11:59;;;;;;;28.45;15.30;;;9.30;99.90;;;;;;5050024;28;20560;-72
2021/11/30 10:14:33;;;;;;;25.15;14.75;;;9.30;99.90;;;;;;5044268;28;20037;-73
2021/11/30 10:17:17;;;;;;;29.48;15.25;;;9.40;99.90;;;;;;5046194;28;20025;-73
2021/11/30 10:19:50;;;;;;;27.85;14.85;;;9.40;99.90;;;;;;5046839;28;20079;-74
2021/11/30 10:22:32;;;;;;;26.73;15.38;;;9.40;99.90;;;;;;5056443;28;20025;-73
2021/11/30 10:25:12;;;;;;;31.88;15.40;;;9.40;99.90;;;;;;5052189;28;20029;-73
2021/11/30 10:27:46;;;;;;;26.70;15.63;;;9.50;99.90;;;;;;5044427;28;20041;-73
2021/11/30 10:30:15;;;;;;;25.13;13.98;;;9.50;99.90;;;;;;5042042;28;20059;-72
2021/11/30 10:32:44;;;;;;;24.35;13.95;;;9.50;99.90;;;;;;5049449;28;20021;-73
2021/11/30 10:35:10;;;;;;;24.92;14.43;;;9.60;99.90;;;;;;5049428;28;20477;-74
2021/11/30 10:37:43;;;;;;;25.65;15.30;;;9.50;99.90;;;;;;5048645;28;20017;-73
2021/11/30 10:40:22;;;;;;;25.67;15.68;;;9.60;99.90;;;;;;5046578;28;20033;-74
2021/11/30 10:42:59;;;;;;;26.35;15.05;;;9.60;99.90;;;;;;5048547;28;20113;-74
2021/11/30 10:45:31;;;;;;;28.05;16.25;;;9.60;99.90;;;;;;5044359;28;20021;-74
2021/11/30 10:48:07;;;;;;;27.95;15.52;;;9.60;99.90;;;;;;5056199;28;20053;-74
2021/11/30 10:50:57;;;;;;;27.67;16.15;;;9.60;99.90;;;;;;5053747;28;20021;-74
2021/11/30 10:53:28;;;;;;;27.20;15.48;;;9.60;99.90;;;;;;5054699;28;20044;-74
2021/11/30 10:56:02;;;;;;;30.65;17.85;;;9.60;99.90;;;;;;5056472;28;20029;-74
2021/11/30 10:58:30;;;;;;;32.63;17.35;;;9.70;99.90;;;;;;5047716;28;20040;-74
2021/11/30 11:00:58;;;;;;;33.97;18.95;;;9.70;99.90;;;;;;5047626;28;20023;-73
2021/11/30 11:03:25;;;;;;;35.22;20.65;;;9.70;99.90;;;;;;5050829;28;20079;-73
2021/11/30 11:08:54;;;;;;;40.70;20.73;;;9.80;99.90;;;;;;5052828;28;20106;-73
2021/11/30 11:11:22;;;;;;;34.15;19.40;;;9.90;99.90;;;;;;5044081;28;20020;-73
2021/11/30 11:13:47;;;;;;;31.30;18.15;;;9.80;99.90;;;;;;5050121;28;20036;-74
2021/11/30 11:16:35;;;;;;;32.50;18.65;;;9.80;99.90;;;;;;5053342;28;20028;-75
2021/11/30 11:19:06;;;;;;;35.20;18.52;;;9.80;99.90;;;;;;5050776;28;20490;-75
2021/11/30 11:21:35;;;;;;;40.65;19.27;;;9.80;99.90;;;;;;5048731;28;20021;-75
2021/11/30 11:24:19;;;;;;;31.15;17.67;;;9.80;99.90;;;;;;5053165;28;20151;-75
2021/11/30 11:26:51;;;;;;;31.20;18.27;;;9.80;99.90;;;;;;5044743;28;20037;-75
2021/11/30 11:29:21;;;;;;;35.85;19.48;;;9.80;99.90;;;;;;5048067;28;20033;-75
2021/11/30 11:31:52;;;;;;;33.72;19.92;;;9.80;99.90;;;;;;5048888;28;20449;-75
2021/11/30 11:34:20;;;;;;;34.58;18.77;;;9.90;99.90;;;;;;5048694;28;20040;-75
2021/11/30 11:36:48;;;;;;;30.95;18.17;;;10.00;99.90;;;;;;5044086;28;20108;-74
2021/11/30 11:39:18;;;;;;;33.72;19.42;;;9.90;99.90;;;;;;5050835;28;20108;-74
2021/11/30 11:41:47;;;;;;;29.77;18.05;;;10.00;99.90;;;;;;5047661;28;20078;-75
2021/11/30 11:44:13;;;;;;;30.38;18.25;;;10.00;99.90;;;;;;5045339;28;20021;-75
2021/11/30 11:46:39;;;;;;;28.95;17.88;;;10.00;99.90;;;;;;5045524;28;20034;-75
2021/11/30 11:49:09;;;;;;;26.30;17.77;;;10.10;99.90;;;;;;5049931;28;20029;-73
2021/11/30 11:51:45;;;;;;;32.80;18.77;;;10.00;99.90;;;;;;5051936;28;20021;-73
2021/11/30 11:54:30;;;;;;;33.67;19.45;;;9.90;99.90;;;;;;5043204;28;20106;-73
2021/11/30 11:57:04;;;;;;;26.55;16.95;;;9.90;99.90;;;;;;5043362;28;20040;-73
2021/11/30 11:59:32;;;;;;;28.17;17.35;;;9.90;99.90;;;;;;5041269;28;20013;-73
2021/11/30 12:02:20;;;;;;;33.95;18.05;;;10.10;99.90;;;;;;5044801;28;20091;-73
2021/11/30 12:04:51;;;;;;;32.38;18.20;;;10.00;99.90;;;;;;5036666;28;20017;-73
2021/11/30 12:07:17;;;;;;;37.83;20.45;;;10.00;99.90;;;;;;5045828;28;20035;-73
2021/11/30 12:09:43;;;;;;;32.88;20.10;;;10.10;99.90;;;;;;5046897;28;20084;-73
2021/11/30 12:12:09;;;;;;;33.05;19.45;;;10.10;99.90;;;;;;5043200;28;20455;-73
2021/11/30 12:14:44;;;;;;;34.20;20.08;;;10.10;99.90;;;;;;5046974;28;20112;-73
2021/11/30 12:17:17;;;;;;;33.38;20.63;;;10.10;99.90;;;;;;5036284;28;20018;-74
2021/11/30 12:19:51;;;;;;;33.20;19.90;;;10.10;99.90;;;;;;5049625;28;20033;-73
2021/11/30 12:22:44;;;;;;;39.70;21.05;;;10.10;99.90;;;;;;5045950;28;20440;-73
2021/11/30 12:25:29;;;;;;;31.63;19.20;;;10.10;99.90;;;;;;5052756;28;20029;-73
2021/11/30 12:28:01;;;;;;;32.40;20.65;;;10.20;99.90;;;;;;5037563;28;20032;-73
2021/11/30 12:30:53;;;;;;;34.27;20.70;;;10.10;99.90;;;;;;5042562;28;20013;-73
2021/11/30 12:33:24;;;;;;;31.33;19.85;;;10.20;99.90;;;;;;5051460;28;20032;-73
2021/11/30 12:36:13;;;;;;;33.88;20.42;;;10.20;99.90;;;;;;5037913;28;20052;-73
2021/11/30 12:38:51;;;;;;;30.33;18.48;;;10.10;99.90;;;;;;5050112;28;20562;-73
2021/11/30 12:41:22;;;;;;;30.88;18.55;;;10.20;99.90;;;;;;5045242;28;20057;-73
2021/11/30 12:43:52;;;;;;;28.90;18.42;;;10.10;99.90;;;;;;5040262;28;20025;-73
2021/11/30 12:46:31;;;;;;;31.83;18.05;;;10.10;99.90;;;;;;5042595;28;20025;-73
2021/11/30 12:48:58;;;;;;;28.05;17.17;;;10.10;99.90;;;;;;5041034;28;20389;-73
2021/11/30 12:51:28;;;;;;;27.27;16.77;;;10.10;99.90;;;;;;5041526;28;20032;-73
2021/11/30 12:53:57;;;;;;;28.55;18.30;;;10.10;99.90;;;;;;5047000;28;20044;-73
2021/11/30 12:56:49;;;;;;;24.63;16.45;;;10.10;99.90;;;;;;5045883;28;20063;-73
2021/11/30 12:59:36;;;;;;;24.75;15.52;;;10.10;99.90;;;;;;5050180;28;20025;-73